Round Lake Heights, Illinois
Current Conditions -  °F | °C
As of 4:55 AM on Thursday 27 Nov 2014 (Local Time) from KUGN Reporting Station
Haze Haze  
Wind Chill: 14°   Ceiling: 5500
Heat Index: 22°   Visibility: 6mi
Dew Point: 18°   Wind: 6mph
Humidity: 85%   Direction: 300°WNW
Pressure: 30.22"   Gusts: NA
Location:  42.3442°N, 88.1158°W
Report Text: KUGN 271055Z AUTO 30005KT 6SM BR OVC055 M06/M08 A3022 RMK AO2 SNB11E51 SLP251 P0000 T10561078
Loading
Personal Weather Stations






























Interactive Weather Map New forecast layout! Learn more

10-Day Weather Forecast

Advertisements
Track Severe Weather on mobile